createdAt,value
2022-07-26T00:04:43.581Z,0.80
2022-07-26T00:09:48.223Z,0.63
2022-07-26T00:14:50.737Z,0.40
2022-07-26T00:19:52.243Z,0.50
2022-07-26T00:24:53.788Z,0.50
2022-07-26T00:29:55.280Z,0.52
2022-07-26T00:34:56.746Z,0.60
2022-07-26T00:39:58.381Z,0.70
2022-07-26T00:45:00.508Z,0.82
2022-07-26T00:50:02.429Z,0.55
2022-07-26T00:55:06.558Z,0.80
2022-07-26T01:00:16.965Z,0.90
2022-07-26T01:10:20.491Z,0.70
2022-07-26T01:15:23.317Z,0.55
2022-07-26T01:20:24.806Z,0.90
2022-07-26T01:25:43.311Z,0.75
2022-07-26T01:30:45.443Z,0.90
2022-07-26T01:35:47.285Z,0.70
2022-07-26T01:40:48.754Z,0.68
2022-07-26T01:45:50.247Z,0.70
2022-07-26T01:50:51.733Z,0.70
2022-07-26T01:55:53.442Z,0.75
2022-07-26T02:00:54.927Z,1.20
2022-07-26T02:05:56.472Z,0.98
2022-07-26T02:11:00.555Z,0.60
2022-07-26T02:16:08.212Z,0.70
2022-07-26T02:21:09.904Z,0.82
2022-07-26T02:26:11.479Z,0.80
2022-07-26T02:31:15.529Z,0.88
2022-07-26T02:36:17.297Z,1.08
2022-07-26T02:41:18.854Z,1.17
2022-07-26T02:46:20.349Z,0.90
2022-07-26T02:51:21.831Z,0.80
2022-07-26T02:56:23.357Z,0.80
2022-07-26T03:01:25.121Z,1.02
2022-07-26T03:06:26.589Z,0.90
2022-07-26T03:11:28.144Z,0.82
2022-07-26T03:16:30.065Z,1.02
2022-07-26T03:21:31.623Z,0.85
2022-07-26T03:26:33.070Z,0.90
2022-07-26T03:31:34.636Z,1.05
2022-07-26T03:36:36.184Z,1.05
2022-07-26T03:41:37.629Z,1.40
2022-07-26T03:46:39.119Z,1.67
2022-07-26T03:51:40.612Z,1.08
2022-07-26T03:56:42.154Z,1.20
2022-07-26T04:01:44.160Z,1.10
2022-07-26T04:06:47.424Z,1.30
2022-07-26T04:11:48.926Z,1.00
2022-07-26T04:16:50.408Z,1.25
2022-07-26T04:21:51.886Z,1.63
2022-07-26T04:26:53.376Z,1.05
2022-07-26T04:31:54.816Z,1.30
2022-07-26T04:36:56.256Z,1.10
2022-07-26T04:41:57.685Z,1.10
2022-07-26T04:46:59.174Z,1.15
2022-07-26T04:52:00.692Z,1.00
2022-07-26T04:57:02.243Z,1.13
2022-07-26T05:02:03.797Z,1.00
2022-07-26T05:07:05.388Z,1.40
2022-07-26T05:12:07.319Z,1.05
2022-07-26T05:17:10.577Z,0.70
2022-07-26T05:22:13.741Z,0.88
2022-07-26T05:27:15.212Z,1.05
2022-07-26T05:32:16.819Z,1.15
2022-07-26T05:37:18.346Z,1.20
2022-07-26T05:42:19.793Z,1.10
2022-07-26T05:47:21.297Z,1.02
2022-07-26T05:52:23.272Z,0.88
2022-07-26T05:57:25.108Z,0.85
2022-07-26T06:02:26.640Z,0.60
2022-07-26T06:07:28.153Z,1.10
2022-07-26T06:12:29.631Z,0.80
2022-07-26T06:17:31.250Z,0.95
2022-07-26T06:22:32.749Z,0.88
2022-07-26T06:27:34.195Z,0.90
2022-07-26T06:32:35.778Z,0.68
2022-07-26T06:37:38.763Z,0.80
2022-07-26T06:42:40.254Z,0.50
2022-07-26T06:47:41.973Z,0.55
2022-07-26T06:52:43.522Z,0.50
2022-07-26T06:57:50.055Z,0.45
2022-07-26T07:02:52.124Z,0.47
2022-07-26T07:07:53.629Z,0.90
2022-07-26T07:12:55.769Z,0.50
2022-07-26T07:17:57.326Z,0.45
2022-07-26T07:22:58.779Z,0.50
2022-07-26T07:28:00.271Z,0.68
2022-07-26T07:33:01.761Z,0.70
2022-07-26T07:38:05.100Z,0.45
2022-07-26T07:43:07.409Z,0.55
2022-07-26T07:48:08.881Z,0.50
2022-07-26T07:53:11.582Z,0.52
2022-07-26T07:58:13.398Z,0.73
2022-07-26T08:03:18.007Z,0.65
2022-07-26T08:08:22.164Z,0.60
2022-07-26T08:13:24.555Z,0.60
2022-07-26T08:18:26.162Z,0.50
2022-07-26T08:23:27.654Z,0.40
2022-07-26T08:33:51.103Z,0.70
2022-07-26T08:38:52.707Z,0.20
2022-07-26T08:43:54.294Z,0.32
2022-07-26T08:48:56.909Z,0.22
2022-07-26T08:54:05.195Z,0.30
2022-07-26T08:59:20.614Z,0.82
2022-07-26T09:04:32.041Z,0.40
2022-07-26T09:09:37.276Z,0.35
2022-07-26T09:14:39.804Z,0.38
2022-07-26T09:19:41.441Z,0.28
2022-07-26T09:24:47.506Z,0.30
2022-07-26T09:29:51.763Z,0.38
2022-07-26T09:34:59.211Z,0.40
2022-07-26T09:40:02.668Z,0.20
2022-07-26T09:45:16.538Z,0.40
2022-07-26T09:50:22.681Z,0.70
2022-07-26T09:55:24.443Z,0.40
2022-07-26T10:00:27.896Z,0.40
2022-07-26T10:05:29.514Z,0.40
2022-07-26T10:10:35.037Z,0.50
2022-07-26T10:15:40.432Z,0.40
2022-07-26T10:20:51.985Z,0.30
2022-07-26T10:25:53.697Z,0.85
2022-07-26T10:31:21.086Z,0.32
2022-07-26T10:36:32.203Z,0.38
2022-07-26T10:41:35.025Z,0.30
2022-07-26T10:46:36.531Z,0.28
2022-07-26T10:51:40.990Z,0.20
2022-07-26T10:56:42.513Z,0.50
2022-07-26T11:01:45.436Z,0.40
2022-07-26T11:06:47.047Z,0.30
2022-07-26T11:11:48.757Z,0.30
2022-07-26T11:16:50.643Z,0.40
2022-07-26T11:21:58.975Z,0.50
2022-07-26T11:27:04.273Z,0.35
2022-07-26T11:32:14.793Z,0.40
2022-07-26T11:37:18.517Z,0.20
2022-07-26T11:42:21.551Z,0.20
2022-07-26T11:47:25.666Z,0.40
2022-07-26T11:52:31.732Z,0.40
2022-07-26T11:57:33.607Z,0.30
2022-07-26T12:02:35.136Z,0.60
2022-07-26T12:07:36.575Z,0.40
2022-07-26T12:12:39.486Z,0.30
2022-07-26T12:17:58.223Z,0.50
2022-07-26T12:23:05.010Z,0.57
2022-07-26T12:28:07.652Z,0.30
2022-07-26T12:33:09.155Z,0.50
2022-07-26T12:38:10.637Z,0.40
2022-07-26T12:43:12.305Z,0.40
2022-07-26T12:48:14.136Z,0.40
2022-07-26T12:53:15.606Z,0.50
2022-07-26T12:58:17.073Z,0.32
2022-07-26T13:03:18.645Z,0.38
2022-07-26T13:08:20.117Z,0.20
2022-07-26T13:13:21.725Z,0.30
2022-07-26T13:18:23.205Z,0.50
2022-07-26T13:23:26.753Z,0.43
2022-07-26T13:28:28.531Z,0.60
2022-07-26T13:33:30.026Z,0.40
2022-07-26T13:38:33.629Z,0.55
2022-07-26T13:43:35.855Z,0.40
2022-07-26T13:48:37.403Z,0.52
2022-07-26T13:53:52.075Z,0.30
2022-07-26T13:58:56.935Z,0.40
2022-07-26T14:03:58.453Z,0.40
2022-07-26T14:09:00.375Z,0.28
2022-07-26T14:14:02.069Z,0.43
2022-07-26T14:19:03.948Z,0.40
2022-07-26T14:24:05.798Z,0.38
2022-07-26T14:29:07.404Z,0.40
2022-07-26T14:34:09.120Z,0.35
2022-07-26T14:39:10.751Z,0.35
2022-07-26T14:44:12.506Z,0.40
2022-07-26T14:49:14.374Z,0.43
2022-07-26T14:54:16.840Z,0.30
2022-07-26T14:59:18.382Z,0.30
2022-07-26T15:04:20.017Z,0.50
2022-07-26T15:09:21.551Z,0.50
2022-07-26T15:14:23.015Z,0.35
2022-07-26T15:19:25.806Z,0.40
2022-07-26T15:24:28.711Z,0.60
2022-07-26T15:29:30.199Z,0.50
2022-07-26T15:34:32.664Z,0.80
2022-07-26T15:39:34.607Z,0.40
2022-07-26T15:44:38.446Z,0.47
2022-07-26T15:49:40.500Z,0.35
2022-07-26T15:54:42.489Z,0.40
2022-07-26T15:59:44.149Z,0.50
2022-07-26T16:04:45.583Z,0.35
2022-07-26T16:09:48.651Z,0.40
2022-07-26T16:14:50.144Z,0.20
2022-07-26T16:19:52.239Z,0.52
2022-07-26T16:24:54.145Z,0.30
2022-07-26T16:29:55.649Z,0.30
2022-07-26T16:34:57.119Z,0.40
2022-07-26T16:39:58.592Z,0.93
2022-07-26T16:45:00.228Z,0.60
2022-07-26T16:50:02.261Z,0.38
2022-07-26T16:55:04.440Z,0.80
2022-07-26T17:00:08.664Z,0.50
2022-07-26T17:05:10.723Z,1.00
2022-07-26T17:10:12.289Z,0.52
2022-07-26T17:15:13.839Z,0.40
2022-07-26T17:20:15.359Z,0.40
2022-07-26T17:25:16.905Z,0.43
2022-07-26T17:30:18.457Z,0.60
2022-07-26T17:35:19.998Z,0.80
2022-07-26T17:40:22.607Z,0.63
2022-07-26T17:45:27.685Z,0.90
2022-07-26T17:50:38.188Z,0.50
2022-07-26T17:55:40.059Z,0.90
2022-07-26T18:00:41.651Z,0.82
2022-07-26T18:05:43.383Z,0.60
2022-07-26T18:10:50.519Z,0.65
2022-07-26T18:15:53.356Z,0.50
2022-07-26T18:20:54.886Z,0.47
2022-07-26T18:25:58.013Z,0.47
2022-07-26T18:30:59.523Z,0.70
2022-07-26T18:36:01.581Z,0.75
2022-07-26T18:41:03.625Z,0.47
2022-07-26T18:46:06.450Z,0.57
2022-07-26T18:51:08.054Z,0.60
2022-07-26T18:56:09.551Z,0.50
2022-07-26T19:01:11.138Z,0.45
2022-07-26T19:06:13.122Z,0.60
2022-07-26T19:11:14.658Z,0.73
2022-07-26T19:16:16.253Z,1.17
2022-07-26T19:21:17.760Z,1.00
2022-07-26T19:26:19.394Z,1.23
2022-07-26T19:31:21.890Z,1.13
2022-07-26T19:36:25.831Z,1.08
2022-07-26T19:41:27.937Z,1.00
2022-07-26T19:46:29.517Z,1.30
2022-07-26T19:51:31.129Z,1.17
2022-07-26T19:56:32.597Z,1.13
2022-07-26T20:01:34.094Z,1.20
2022-07-26T20:06:35.652Z,1.35
2022-07-26T20:11:37.167Z,0.93
2022-07-26T20:16:38.690Z,1.42
2022-07-26T20:21:40.717Z,0.95
2022-07-26T20:26:42.794Z,1.10
2022-07-26T20:31:44.708Z,0.98
2022-07-26T20:36:46.506Z,0.63
2022-07-26T20:41:48.225Z,0.68
2022-07-26T20:46:49.891Z,0.90
2022-07-26T20:51:51.394Z,0.63
2022-07-26T20:56:52.837Z,1.23
2022-07-26T21:01:54.379Z,0.93
2022-07-26T21:06:55.942Z,0.93
2022-07-26T21:11:57.594Z,1.20
2022-07-26T21:16:59.146Z,0.85
2022-07-26T21:22:00.878Z,1.33
2022-07-26T21:27:04.125Z,0.73
2022-07-26T21:32:05.729Z,1.10
2022-07-26T21:37:07.218Z,0.85
2022-07-26T21:42:08.749Z,1.10
2022-07-26T21:47:10.270Z,0.95
2022-07-26T21:52:11.710Z,0.90
2022-07-26T21:57:13.176Z,0.80
2022-07-26T22:02:14.685Z,0.73
2022-07-26T22:07:21.386Z,0.63
2022-07-26T22:12:22.833Z,0.93
2022-07-26T22:17:24.279Z,0.80
2022-07-26T22:22:25.750Z,0.80
2022-07-26T22:27:27.440Z,1.10
2022-07-26T22:32:28.906Z,1.10
2022-07-26T22:37:30.367Z,0.93
2022-07-26T22:42:32.058Z,1.02
2022-07-26T22:47:33.531Z,0.95
2022-07-26T22:52:35.279Z,0.75
2022-07-26T22:57:36.797Z,1.08
2022-07-26T23:02:38.453Z,0.70
2022-07-26T23:07:40.156Z,0.68
2022-07-26T23:12:42.363Z,1.00
2022-07-26T23:17:43.950Z,1.15
2022-07-26T23:22:45.468Z,0.88
2022-07-26T23:27:48.523Z,1.02
2022-07-26T23:32:49.972Z,1.52
2022-07-26T23:37:51.458Z,1.02
2022-07-26T23:42:53.106Z,1.15
2022-07-26T23:47:54.559Z,1.45
2022-07-26T23:52:55.975Z,2.00
2022-07-26T23:57:57.529Z,1.83
